HDAM/JIB METAR and TAF weather

Enter ICAO airport designator
Station Type Date Time Source
HDAM METAR 2021/10/01 13:00 UTC NOAA

HDAM 011300Z 07009KT 9999 FEW023 36/22 Q1003


Station Type Date Time Source
HDAM Decoded METAR 2021/10/01 13:00 UTC NOAA

Djibouti \ Ambouli, Djibouti (HDAM) 11-33N 043-10E
Oct 01, 2021 - 09:00 AM EDT / 2021.10.01 1300 UTC
Wind: from the ENE (070 degrees) at 10 MPH (9 KT):0
Visibility: greater than 7 mile(s):0
Sky conditions: mostly clear
Temperature: 96 F (36 C)
Heat index: 103.5 F (39.7 C):1
Dew Point: 71 F (22 C)
Relative Humidity: 44%
Pressure (altimeter): 29.62 in. Hg (1003 hPa)
ob: HDAM 011300Z 07009KT 9999 FEW023 36/22 Q1003
cycle: 13

Station Type Date Time Source
HDAM TAF 2021/10/01 12:45 UTC NOAA

TAF TAF HDAM 011200Z 0112/0212 06010KT 9999 FEW023 FEW133
BECMG 0115/0121 VRB03KT CAVOK
BECMG 0200/0206 00000KT FEW023 FEW133

Example: see airport list